sim
Sign-in with your pilot id or email,
or register
Callsign
Passwort

Schedule Details

Flight Number: RYR9117 (2)
Departure: Bratislava M. R. Stefanik Airport (LZIB) at 18:15
Arrival: Paris Beauvais-Tille Airport (LFOB) at 20:20
Route: Ryanair Passenger Schedule. Enter filed route here before submitting Pirep.

Weather Information
Getting current METAR information for LZIB 310630Z 33005KT 300V010 9999 -RA FEW025 BKN056 BKN075 12/06 Q1015 NOSIG
Getting current METAR information for LFOB 310630Z AUTO VRB01KT CAVOK 17/08 Q1020 BECMG 07012KT

Schedule Frequency

Route Map